Time;durP1;ratioP1;P1;durP2;ratioP2;P2;SDS_P1;SDS_P2;PMS_P1;PMS_P2;Temp;Humidity;BMP_temperature;BMP_pressure;BME280_temperature;BME280_humidity;BME280_pressure;Samples;Min_cycle;Max_cycle;Signal;HPM_P1;HPM_P2
2024/02/01 00:00:52;;;;;;;8.10;3.65;;;8.00;99.90;;;;;;4959763;28;20034;-80
2024/02/01 00:03:18;;;;;;;9.23;3.15;;;8.70;99.90;;;;;;4961234;29;20038;-80
2024/02/01 00:05:44;;;;;;;12.82;3.92;;;7.60;99.90;;;;;;4960323;29;20122;-80
2024/02/01 00:08:10;;;;;;;11.50;4.15;;;7.50;99.90;;;;;;4960799;28;20471;-81
2024/02/01 00:10:36;;;;;;;8.85;3.42;;;7.60;99.90;;;;;;4959273;28;20053;-81
2024/02/01 00:13:01;;;;;;;6.38;3.42;;;7.60;99.90;;;;;;4959560;28;20020;-80
2024/02/01 00:15:27;;;;;;;13.15;3.90;;;7.70;99.90;;;;;;4959345;28;20035;-80
2024/02/01 00:17:52;;;;;;;11.23;2.97;;;7.70;99.90;;;;;;4959060;28;20058;-80
2024/02/01 00:20:18;;;;;;;17.23;3.85;;;7.70;99.90;;;;;;4958965;28;20023;-80
2024/02/01 00:22:44;;;;;;;9.65;3.92;;;7.70;99.90;;;;;;4958469;28;20078;-80
2024/02/01 00:25:10;;;;;;;13.13;3.20;;;7.80;99.90;;;;;;4958380;28;20082;-80
2024/02/01 00:27:35;;;;;;;14.30;4.07;;;7.90;99.90;;;;;;4958201;28;20106;-80
2024/02/01 00:30:02;;;;;;;11.30;3.35;;;7.90;99.90;;;;;;4958854;28;20394;-80
2024/02/01 00:32:27;;;;;;;13.60;3.80;;;7.90;99.90;;;;;;4958639;28;20110;-80
2024/02/01 00:34:53;;;;;;;11.95;3.67;;;8.00;99.90;;;;;;4960716;28;20070;-80
2024/02/01 00:37:19;;;;;;;10.35;3.83;;;8.10;99.90;;;;;;4958713;28;20034;-80
2024/02/01 00:39:44;;;;;;;10.20;3.53;;;8.10;99.90;;;;;;4958870;28;20057;-80
2024/02/01 00:42:10;;;;;;;13.02;3.33;;;8.20;99.90;;;;;;4958604;29;20059;-80
2024/02/01 00:44:36;;;;;;;11.68;3.15;;;8.30;99.90;;;;;;4959444;28;20063;-81
2024/02/01 00:47:01;;;;;;;13.85;3.92;;;8.30;99.90;;;;;;4959550;28;20038;-81
2024/02/01 00:49:27;;;;;;;14.40;3.40;;;8.40;99.90;;;;;;4958521;28;20026;-80
2024/02/01 00:51:52;;;;;;;13.27;3.25;;;8.50;99.90;;;;;;4958550;28;20475;-80
2024/02/01 00:54:18;;;;;;;14.88;3.30;;;8.60;99.90;;;;;;4959729;28;20034;-80
2024/02/01 00:56:43;;;;;;;10.13;3.50;;;8.60;99.90;;;;;;4958478;28;20030;-80
2024/02/01 00:59:09;;;;;;;15.52;3.30;;;8.70;99.90;;;;;;4957142;28;20023;-80
2024/02/01 01:01:35;;;;;;;15.15;3.67;;;8.80;99.90;;;;;;4958510;29;20012;-79
2024/02/01 01:04:00;;;;;;;14.40;3.20;;;8.80;99.90;;;;;;4959805;28;20113;-81
2024/02/01 01:06:27;;;;;;;12.43;4.15;;;8.80;99.90;;;;;;4960640;28;20094;-80
2024/02/01 01:08:53;;;;;;;8.15;2.50;;;8.90;99.90;;;;;;4959287;28;20130;-80
2024/02/01 01:11:19;;;;;;;12.55;2.22;;;8.90;99.90;;;;;;4958909;28;20118;-81
2024/02/01 01:13:45;;;;;;;15.88;3.08;;;9.00;99.90;;;;;;4957875;28;20498;-80
2024/02/01 01:16:10;;;;;;;8.27;2.80;;;9.10;99.90;;;;;;4959238;29;20054;-79
2024/02/01 01:18:36;;;;;;;14.02;2.97;;;9.10;99.90;;;;;;4957741;28;20066;-79
2024/02/01 01:21:02;;;;;;;12.90;2.10;;;9.10;99.90;;;;;;4958857;28;20051;-80
2024/02/01 01:23:27;;;;;;;15.18;3.00;;;9.10;99.90;;;;;;4959080;28;20035;-81
2024/02/01 01:25:53;;;;;;;8.48;2.42;;;9.10;99.90;;;;;;4959823;29;20027;-80
2024/02/01 01:28:19;;;;;;;11.93;3.63;;;9.20;99.90;;;;;;4957867;28;20038;-80
2024/02/01 01:30:45;;;;;;;9.13;2.00;;;9.30;99.90;;;;;;4958639;28;20027;-80
2024/02/01 01:33:10;;;;;;;9.80;1.63;;;9.30;99.90;;;;;;4959612;28;20035;-80
2024/02/01 01:35:36;;;;;;;19.75;2.42;;;9.30;99.90;;;;;;4957894;28;20023;-80
2024/02/01 01:38:02;;;;;;;14.18;2.67;;;9.30;99.90;;;;;;4959407;28;20427;-80
2024/02/01 01:40:27;;;;;;;11.35;2.72;;;9.40;99.90;;;;;;4959458;29;20051;-81
2024/02/01 01:42:53;;;;;;;19.70;3.25;;;9.40;99.90;;;;;;4957851;28;20028;-80
2024/02/01 01:45:19;;;;;;;7.40;2.22;;;9.40;99.90;;;;;;4958344;28;20077;-80
2024/02/01 01:47:45;;;;;;;13.80;1.60;;;9.40;99.90;;;;;;4941957;29;20023;-81
2024/02/01 01:50:11;;;;;;;13.02;1.58;;;9.40;99.90;;;;;;4958944;28;20027;-81
2024/02/01 01:52:38;;;;;;;12.80;2.25;;;9.30;99.90;;;;;;4958677;28;20082;-81
2024/02/01 01:55:06;;;;;;;14.07;2.55;;;9.30;99.90;;;;;;4958576;28;20031;-81
2024/02/01 01:57:32;;;;;;;16.73;3.37;;;9.30;99.90;;;;;;4959202;28;20070;-81
2024/02/01 01:59:59;;;;;;;13.38;2.05;;;9.40;99.90;;;;;;4958141;29;20023;-81
2024/02/01 02:02:31;;;;;;;11.73;1.88;;;9.30;99.90;;;;;;4957591;29;20035;-81
2024/02/01 02:04:57;;;;;;;14.73;1.95;;;10.00;99.90;;;;;;4957507;28;20047;-81
2024/02/01 02:07:23;;;;;;;10.60;2.10;;;9.40;99.90;;;;;;4956894;28;20019;-80
2024/02/01 02:09:49;;;;;;;12.80;2.55;;;9.50;99.90;;;;;;4958786;28;20114;-81
2024/02/01 02:12:15;;;;;;;20.15;3.05;;;9.40;99.90;;;;;;4960917;28;20595;-80
2024/02/01 02:14:40;;;;;;;23.60;3.33;;;9.30;99.90;;;;;;4960654;29;20043;-81
2024/02/01 02:17:06;;;;;;;16.35;2.60;;;9.30;99.90;;;;;;4960321;28;20019;-81
2024/02/01 02:19:32;;;;;;;21.70;2.75;;;9.30;99.90;;;;;;4960333;28;20110;-81
2024/02/01 02:21:58;;;;;;;15.02;2.80;;;9.30;99.90;;;;;;4961804;28;20027;-81
2024/02/01 02:24:25;;;;;;;28.77;2.22;;;9.20;99.90;;;;;;4960389;28;20058;-81
2024/02/01 02:26:51;;;;;;;13.27;1.85;;;;;;;;;;4960103;28;20387;-81
2024/02/01 02:29:17;;;;;;;17.60;1.90;;;9.20;99.90;;;;;;4961735;28;20027;-81
2024/02/01 02:31:44;;;;;;;8.27;1.42;;;9.10;99.90;;;;;;4961626;29;20033;-81
2024/02/01 02:34:09;;;;;;;19.27;2.05;;;9.10;99.90;;;;;;4960668;29;20484;-81
2024/02/01 02:36:38;;;;;;;20.15;3.55;;;9.00;99.90;;;;;;4960817;28;20027;-81
2024/02/01 02:39:04;;;;;;;23.98;2.22;;;9.10;99.90;;;;;;4962476;28;20051;-81
2024/02/01 02:41:30;;;;;;;16.38;2.38;;;9.00;99.90;;;;;;4960643;28;20119;-81
2024/02/01 02:43:56;;;;;;;20.52;1.77;;;9.00;99.90;;;;;;4961608;28;20047;-81
2024/02/01 02:46:25;;;;;;;20.20;1.33;;;8.80;99.90;;;;;;4961815;28;20030;-80
2024/02/01 02:48:50;;;;;;;17.33;1.20;;;8.80;99.90;;;;;;4960279;28;20039;-80
2024/02/01 02:51:16;;;;;;;12.52;1.05;;;8.80;99.90;;;;;;4961555;28;20030;-81
2024/02/01 02:53:42;;;;;;;12.23;1.20;;;8.60;99.90;;;;;;4962734;28;20026;-81
2024/02/01 02:56:08;;;;;;;8.45;1.55;;;8.40;99.90;;;;;;4961185;28;20022;-81
2024/02/01 02:58:37;;;;;;;7.30;0.70;;;8.40;99.90;;;;;;4960497;28;20027;-81
2024/02/01 03:01:05;;;;;;;;;;;8.30;99.90;;;;;;4962507;28;20027;-81
2024/02/01 03:03:33;;;;;;;5.72;0.47;;;8.20;99.90;;;;;;4960988;29;20282;-81
2024/02/01 03:05:59;;;;;;;9.40;0.55;;;8.10;99.90;;;;;;4963294;28;20019;-81
2024/02/01 03:08:25;;;;;;;18.92;2.33;;;8.10;99.90;;;;;;4961774;28;20027;-81
2024/02/01 03:10:50;;;;;;;15.88;0.45;;;8.10;99.90;;;;;;4961219;28;20031;-81
2024/02/01 03:13:17;;;;;;;14.30;1.38;;;8.00;99.90;;;;;;4959691;28;20019;-81
2024/02/01 03:15:42;;;;;;;14.20;0.88;;;8.00;99.90;;;;;;4961024;28;20030;-81
2024/02/01 03:18:10;;;;;;;19.73;1.08;;;7.90;99.90;;;;;;4959245;29;20031;-81
2024/02/01 03:20:36;;;;;;;12.63;1.17;;;7.80;99.90;;;;;;4958725;28;20027;-80
2024/02/01 03:23:05;;;;;;;14.82;0.85;;;7.80;99.90;;;;;;4959823;28;20025;-81
2024/02/01 03:25:32;;;;;;;14.25;0.98;;;7.70;99.90;;;;;;4959741;28;20511;-81
2024/02/01 03:28:01;;;;;;;15.43;0.57;;;7.80;99.90;;;;;;4961085;28;20551;-80
2024/02/01 03:30:38;;;;;;;17.63;0.38;;;8.90;99.90;;;;;;4960675;28;20481;-81
2024/02/01 03:33:05;;;;;;;15.65;0.70;;;7.50;99.90;;;;;;4959623;28;20521;-81
2024/02/01 03:35:31;;;;;;;8.57;0.50;;;7.30;99.90;;;;;;4961073;28;20027;-81
2024/02/01 03:38:01;;;;;;;19.60;1.55;;;7.30;99.90;;;;;;4959853;28;20032;-81
2024/02/01 03:40:27;;;;;;;12.25;1.98;;;7.20;99.90;;;;;;4959174;28;20110;-81
2024/02/01 03:42:53;;;;;;;8.82;0.63;;;7.30;99.90;;;;;;4959423;28;20058;-81
2024/02/01 03:45:19;;;;;;;10.32;0.93;;;7.00;99.90;;;;;;4959550;28;20023;-81
2024/02/01 03:47:47;;;;;;;15.25;1.50;;;7.00;99.90;;;;;;4960397;28;20169;-80
2024/02/01 03:50:14;;;;;;;9.05;0.50;;;6.90;99.90;;;;;;4960875;28;20047;-80
2024/02/01 03:52:45;;;;;;;9.63;0.40;;;6.90;99.90;;;;;;4960708;28;20030;-81
2024/02/01 03:55:17;;;;;;;16.10;1.08;;;6.90;99.90;;;;;;4960319;28;20027;-81
2024/02/01 03:57:47;;;;;;;7.95;0.47;;;6.70;99.90;;;;;;4959951;28;20069;-80
2024/02/01 04:00:34;;;;;;;11.60;1.38;;;6.70;99.90;;;;;;4959041;29;20038;-80
2024/02/01 04:03:03;;;;;;;11.02;0.40;;;6.60;99.90;;;;;;4959248;28;20407;-80
2024/02/01 04:05:36;;;;;;;18.63;1.13;;;6.60;99.90;;;;;;4959281;28;20495;-80
2024/02/01 04:08:17;;;;;;;16.50;1.27;;;6.40;99.90;;;;;;4961906;28;20023;-80
2024/02/01 04:10:45;;;;;;;23.38;0.98;;;6.30;99.90;;;;;;4961821;28;20023;-80
2024/02/01 04:13:10;;;;;;;16.48;2.78;;;6.30;99.90;;;;;;4960752;28;20027;-80
2024/02/01 04:15:36;;;;;;;13.77;0.80;;;6.10;99.90;;;;;;4962023;28;20031;-80
2024/02/01 04:18:04;;;;;;;18.88;0.93;;;6.10;99.90;;;;;;4960311;28;20023;-80
2024/02/01 04:20:30;;;;;;;11.68;0.50;;;6.00;99.90;;;;;;4960946;28;20034;-80
2024/02/01 04:22:56;;;;;;;10.48;1.15;;;5.80;99.90;;;;;;4961101;28;20061;-80
2024/02/01 04:25:25;;;;;;;13.82;1.98;;;5.80;99.90;;;;;;4958821;28;20529;-81
2024/02/01 04:27:54;;;;;;;4.78;0.10;;;5.70;99.90;;;;;;4958491;28;20046;-80
2024/02/01 04:30:20;;;;;;;6.78;0.28;;;5.60;99.90;;;;;;4958619;28;20391;-80
2024/02/01 04:32:47;;;;;;;10.95;0.50;;;5.50;99.90;;;;;;4956235;28;20019;-77
2024/02/01 04:35:14;;;;;;;8.43;0.10;;;5.30;99.90;;;;;;4956005;28;20028;-78
2024/02/01 04:37:41;;;;;;;10.23;0.93;;;5.30;99.90;;;;;;4956044;28;20031;-77
2024/02/01 04:40:08;;;;;;;11.65;0.95;;;5.20;99.90;;;;;;4954669;28;20071;-77
2024/02/01 04:42:35;;;;;;;10.07;0.25;;;5.10;99.90;;;;;;4956023;29;20027;-77
2024/02/01 04:45:04;;;;;;;17.00;0.80;;;4.90;99.90;;;;;;4954573;28;20027;-77
2024/02/01 04:47:34;;;;;;;5.28;0.10;;;4.90;99.90;;;;;;4954371;28;20027;-78
2024/02/01 04:50:00;;;;;;;9.15;0.73;;;4.80;99.90;;;;;;4954858;28;20495;-77
2024/02/01 04:52:27;;;;;;;11.32;1.55;;;4.70;99.90;;;;;;4955581;28;20030;-77
2024/02/01 04:54:53;;;;;;;7.60;0.75;;;5.40;99.90;;;;;;4956843;28;20023;-78
2024/02/01 04:57:20;;;;;;;9.05;0.90;;;4.50;99.90;;;;;;4955222;28;20038;-78
2024/02/01 04:59:46;;;;;;;8.10;0.63;;;4.50;99.90;;;;;;4955531;29;20045;-78
2024/02/01 05:02:14;;;;;;;16.83;1.02;;;4.40;99.90;;;;;;4954790;29;20395;-79
2024/02/01 05:04:40;;;;;;;13.43;0.20;;;4.30;99.90;;;;;;4959097;28;20033;-79
2024/02/01 05:07:05;;;;;;;12.57;1.38;;;4.20;99.90;;;;;;4957488;29;20063;-79
2024/02/01 05:09:36;;;;;;;8.55;0.45;;;5.40;99.90;;;;;;4958517;28;20030;-80
2024/02/01 05:12:02;;;;;;;19.40;1.20;;;4.10;99.90;;;;;;4958367;28;20023;-80
2024/02/01 05:14:28;;;;;;;13.98;0.77;;;4.10;99.90;;;;;;4958513;28;20062;-80
2024/02/01 05:16:53;;;;;;;10.05;0.85;;;4.00;99.90;;;;;;4957392;28;20011;-80
2024/02/01 05:19:20;;;;;;;16.35;0.82;;;4.00;99.90;;;;;;4958307;28;20019;-79
2024/02/01 05:21:46;;;;;;;9.68;0.47;;;3.90;99.90;;;;;;4956781;28;20027;-79
2024/02/01 05:24:14;;;;;;;14.52;1.73;;;4.60;99.90;;;;;;4958075;28;20567;-80
2024/02/01 05:26:50;;;;;;;12.75;0.65;;;3.90;99.90;;;;;;4956289;28;20497;-80
2024/02/01 05:29:19;;;;;;;19.27;0.80;;;3.80;99.90;;;;;;4956864;29;20030;-80
2024/02/01 05:31:48;;;;;;;5.80;0.50;;;3.80;99.90;;;;;;4956670;28;20028;-80
2024/02/01 05:34:15;;;;;;;14.45;0.55;;;3.70;99.90;;;;;;4957812;29;20027;-79
2024/02/01 05:36:43;;;;;;;12.00;0.40;;;3.60;99.90;;;;;;4955571;28;20479;-79
2024/02/01 05:39:24;;;;;;;13.52;0.32;;;3.60;99.90;;;;;;4956733;28;20086;-79
2024/02/01 05:42:12;;;;;;;13.57;0.90;;;3.50;99.90;;;;;;4956576;28;20480;-80
2024/02/01 05:44:37;;;;;;;8.53;0.30;;;3.40;99.90;;;;;;4957623;28;20019;-79
2024/02/01 05:47:05;;;;;;;15.85;0.75;;;3.40;99.90;;;;;;4960119;28;20372;-80
2024/02/01 05:49:33;;;;;;;11.70;0.80;;;3.40;99.90;;;;;;4959261;28;20027;-79
2024/02/01 05:52:03;;;;;;;13.05;0.55;;;3.30;99.90;;;;;;4961322;28;20278;-79
2024/02/01 05:54:30;;;;;;;15.70;0.57;;;3.30;99.90;;;;;;4959342;28;20028;-79
2024/02/01 05:56:56;;;;;;;12.52;0.52;;;3.30;99.90;;;;;;4960739;28;20110;-79
2024/02/01 05:59:21;;;;;;;12.43;0.88;;;3.70;99.90;;;;;;4961136;28;20546;-79
2024/02/01 06:01:48;;;;;;;14.30;0.73;;;3.20;99.90;;;;;;4958996;28;20042;-79
2024/02/01 06:04:14;;;;;;;9.18;0.40;;;3.20;99.90;;;;;;4960658;28;20044;-79
2024/02/01 06:06:49;;;;;;;6.07;0.50;;;3.20;99.90;;;;;;4960481;28;20023;-79
2024/02/01 06:09:15;;;;;;;12.23;0.32;;;;;;;;;;4961193;28;20050;-79
2024/02/01 06:11:48;;;;;;;11.02;0.70;;;3.10;99.90;;;;;;4961600;28;20031;-79
2024/02/01 06:14:14;;;;;;;10.65;1.17;;;3.10;99.90;;;;;;4960992;28;20094;-79
2024/02/01 06:16:40;;;;;;;15.35;1.55;;;3.10;99.90;;;;;;4959430;28;20019;-79
2024/02/01 06:19:06;;;;;;;17.63;0.85;;;3.10;99.90;;;;;;4961161;28;20027;-79
2024/02/01 06:21:32;;;;;;;10.82;0.30;;;3.00;99.90;;;;;;4960930;28;20594;-79
2024/02/01 06:23:58;;;;;;;16.40;1.33;;;3.00;99.90;;;;;;4960787;28;20047;-79
2024/02/01 06:26:27;;;;;;;14.13;0.68;;;3.00;99.90;;;;;;4961541;28;20110;-79
2024/02/01 06:28:53;;;;;;;14.55;0.50;;;3.80;99.90;;;;;;4959356;28;20027;-79
2024/02/01 06:31:20;;;;;;;7.82;0.40;;;2.90;99.90;;;;;;4961637;29;20387;-79
2024/02/01 06:33:50;;;;;;;12.82;1.73;;;2.90;99.90;;;;;;4960657;28;20034;-79
2024/02/01 06:36:19;;;;;;;12.98;0.45;;;2.90;99.90;;;;;;4961346;28;20023;-80
2024/02/01 06:38:55;;;;;;;12.25;0.75;;;2.90;99.90;;;;;;4962529;28;20070;-80
2024/02/01 06:44:12;;;;;;;21.25;1.52;;;;;;;;;;4966643;29;20050;-80
2024/02/01 06:47:12;;;;;;;9.75;1.70;;;2.90;99.90;;;;;;4965818;28;20039;-80
2024/02/01 06:55:06;;;;;;;7.97;0.40;;;2.90;99.90;;;;;;4967310;28;20031;-80
2024/02/01 06:57:48;;;;;;;10.10;0.73;;;2.80;99.90;;;;;;4967762;28;20030;-80
2024/02/01 07:03:02;;;;;;;13.90;0.60;;;2.80;99.90;;;;;;4960326;29;20404;-77
2024/02/01 07:24:38;;;;;;;15.88;0.55;;;2.80;99.90;;;;;;4960722;29;20042;-80
2024/02/01 08:00:08;;;;;;;11.73;1.23;;;4.20;99.90;;;;;;4961757;29;20050;-78
2024/02/01 08:08:04;;;;;;;10.45;0.60;;;3.20;99.90;;;;;;4961299;28;20065;-79
2024/02/01 08:10:31;;;;;;;8.85;1.35;;;3.20;99.90;;;;;;4960491;28;20028;-79
2024/02/01 08:13:05;;;;;;;15.48;1.15;;;3.30;99.90;;;;;;4959618;28;20059;-78
2024/02/01 08:15:44;;;;;;;13.30;1.17;;;3.50;99.90;;;;;;4959628;28;20069;-79
2024/02/01 08:18:10;;;;;;;21.58;1.42;;;3.50;99.90;;;;;;4959756;28;20019;-78
2024/02/01 08:20:39;;;;;;;12.13;1.17;;;3.60;99.90;;;;;;4959010;28;20023;-78
2024/02/01 08:23:06;;;;;;;10.32;0.80;;;3.60;99.90;;;;;;4958917;28;20444;-79
2024/02/01 08:25:33;;;;;;;14.23;0.60;;;3.80;99.90;;;;;;4958878;28;20019;-79
2024/02/01 08:27:59;;;;;;;15.43;1.17;;;3.80;99.90;;;;;;4957751;28;20035;-78
2024/02/01 08:30:32;;;;;;;18.77;1.73;;;3.90;99.90;;;;;;4957987;28;20476;-79
2024/02/01 08:33:03;;;;;;;19.40;1.13;;;4.00;99.90;;;;;;4958332;28;20019;-79
2024/02/01 08:35:33;;;;;;;16.23;1.27;;;4.10;99.90;;;;;;4957616;29;20479;-79
2024/02/01 08:38:03;;;;;;;14.48;1.17;;;4.10;99.90;;;;;;4956369;28;20031;-79
2024/02/01 08:40:30;;;;;;;17.08;1.25;;;4.20;99.90;;;;;;4960091;28;20019;-79
2024/02/01 08:42:59;;;;;;;11.57;0.95;;;4.30;99.90;;;;;;4959540;28;20054;-79
2024/02/01 08:45:29;;;;;;;13.20;0.77;;;4.30;99.90;;;;;;4959515;28;20027;-80
2024/02/01 08:48:00;;;;;;;17.98;1.00;;;4.40;99.90;;;;;;4958789;28;20031;-80
2024/02/01 08:50:43;;;;;;;12.57;1.15;;;4.60;99.90;;;;;;4958934;28;20016;-80
2024/02/01 08:53:11;;;;;;;22.02;1.58;;;4.60;99.90;;;;;;4959459;28;20027;-80
2024/02/01 08:55:41;;;;;;;14.50;1.00;;;4.80;99.90;;;;;;4958796;28;20455;-79
2024/02/01 08:58:11;;;;;;;14.88;1.70;;;4.90;99.90;;;;;;4957943;28;20506;-80
2024/02/01 09:00:42;;;;;;;10.80;1.50;;;5.00;99.90;;;;;;4959734;28;20023;-80
2024/02/01 09:03:19;;;;;;;14.90;0.77;;;5.00;99.90;;;;;;4959906;28;20027;-80
2024/02/01 09:05:47;;;;;;;15.85;2.35;;;5.20;99.90;;;;;;4960306;28;20114;-80
2024/02/01 09:08:24;;;;;;;16.98;0.65;;;5.20;99.90;;;;;;4960271;28;20035;-80
2024/02/01 09:10:57;;;;;;;18.48;1.38;;;5.30;99.90;;;;;;4957897;28;20023;-80
2024/02/01 09:13:24;;;;;;;14.27;1.10;;;5.40;99.90;;;;;;4957336;28;20463;-78
2024/02/01 09:15:51;;;;;;;26.45;1.88;;;5.60;99.90;;;;;;4959349;28;20023;-80
2024/02/01 09:18:17;;;;;;;10.75;1.20;;;5.70;99.90;;;;;;4959823;28;20498;-80
2024/02/01 09:20:44;;;;;;;15.23;0.57;;;5.70;99.90;;;;;;4962353;28;20402;-81
2024/02/01 09:23:11;;;;;;;12.25;1.25;;;5.80;99.90;;;;;;4964185;28;20082;-81
2024/02/01 09:25:38;;;;;;;13.98;1.33;;;5.90;99.90;;;;;;4961771;28;20460;-80
2024/02/01 09:28:11;;;;;;;17.33;1.90;;;6.00;99.90;;;;;;4961884;28;20039;-80
2024/02/01 09:30:47;;;;;;;12.90;1.55;;;6.10;99.90;;;;;;4962741;28;20019;-80
2024/02/01 09:33:18;;;;;;;13.57;0.68;;;6.20;99.90;;;;;;4961411;28;20023;-79
2024/02/01 09:35:45;;;;;;;19.42;1.33;;;6.40;99.90;;;;;;4961964;28;20491;-80
2024/02/01 09:38:11;;;;;;;15.45;0.63;;;8.10;99.90;;;;;;4962653;28;20019;-81
2024/02/01 09:40:41;;;;;;;21.65;2.63;;;6.60;99.90;;;;;;4962273;28;20126;-81
2024/02/01 09:43:17;;;;;;;11.82;0.85;;;7.60;99.90;;;;;;4962331;28;20558;-81
2024/02/01 09:45:43;;;;;;;16.23;1.27;;;6.80;99.90;;;;;;4961206;28;20020;-82
2024/02/01 09:48:16;;;;;;;12.25;1.58;;;6.90;99.90;;;;;;4962760;28;20059;-82
2024/02/01 09:50:55;;;;;;;21.08;2.20;;;3.10;99.90;;;;;;4961443;29;20082;-80
2024/02/01 09:53:26;;;;;;;14.32;1.83;;;7.10;99.90;;;;;;4961734;28;20034;-79
2024/02/01 09:55:53;;;;;;;16.80;1.15;;;7.20;99.90;;;;;;4961673;29;20027;-80
2024/02/01 09:58:19;;;;;;;20.20;1.90;;;7.20;99.90;;;;;;4962487;29;20023;-79
2024/02/01 10:00:45;;;;;;;19.13;1.35;;;7.30;99.90;;;;;;4961951;28;20491;-81
2024/02/01 10:03:13;;;;;;;13.10;0.63;;;7.60;99.90;;;;;;4961141;29;20027;-80
2024/02/01 10:05:40;;;;;;;20.80;1.35;;;7.50;99.90;;;;;;4962233;28;20042;-80
2024/02/01 10:08:13;;;;;;;20.02;1.85;;;7.60;99.90;;;;;;4961165;29;20023;-79
2024/02/01 10:10:41;;;;;;;19.05;1.67;;;7.60;99.90;;;;;;4961871;28;20034;-79
2024/02/01 10:13:13;;;;;;;21.03;1.70;;;7.60;99.90;;;;;;4961455;28;20047;-79
2024/02/01 10:15:46;;;;;;;18.85;1.70;;;7.70;99.90;;;;;;4964626;28;20031;-79
2024/02/01 10:18:20;;;;;;;18.92;1.50;;;7.70;99.90;;;;;;4962504;28;20045;-79
2024/02/01 10:20:58;;;;;;;13.40;1.80;;;7.70;99.90;;;;;;4972204;28;20031;-79
2024/02/01 10:23:24;;;;;;;27.08;2.42;;;7.80;99.90;;;;;;4972604;28;20530;-79
2024/02/01 10:25:55;;;;;;;14.88;1.40;;;8.00;99.90;;;;;;4971105;28;20023;-81
2024/02/01 10:28:22;;;;;;;18.63;2.42;;;7.90;99.90;;;;;;4970440;28;20032;-80
2024/02/01 10:30:49;;;;;;;28.17;1.92;;;10.00;99.90;;;;;;4971698;28;20026;-79
2024/02/01 10:33:19;;;;;;;24.88;1.00;;;9.40;99.90;;;;;;4973747;28;20091;-79
2024/02/01 10:35:50;;;;;;;23.15;1.83;;;8.20;99.90;;;;;;4973559;28;20023;-79
2024/02/01 10:38:26;;;;;;;17.05;2.10;;;8.30;99.90;;;;;;4967330;28;20020;-79
2024/02/01 10:40:58;;;;;;;15.32;1.60;;;8.40;99.90;;;;;;4959662;28;20023;-79
2024/02/01 10:43:34;;;;;;;20.20;1.90;;;8.50;99.90;;;;;;4958647;29;20085;-80
2024/02/01 10:46:06;;;;;;;12.63;0.90;;;8.60;99.90;;;;;;4958149;28;20030;-80
2024/02/01 10:48:42;;;;;;;20.60;0.93;;;;;;;;;;4960682;29;20023;-80
2024/02/01 10:51:11;;;;;;;20.73;1.80;;;8.50;99.90;;;;;;4961992;28;20027;-80
2024/02/01 10:53:42;;;;;;;13.30;0.95;;;8.50;99.90;;;;;;4962188;28;20027;-80
2024/02/01 10:56:14;;;;;;;14.02;1.65;;;8.40;99.90;;;;;;4962755;28;20024;-79
2024/02/01 10:58:49;;;;;;;12.73;0.77;;;8.50;99.90;;;;;;4963671;28;20051;-80
2024/02/01 11:01:18;;;;;;;18.65;1.65;;;8.50;99.90;;;;;;4963784;28;20055;-80
2024/02/01 11:04:05;;;;;;;16.08;1.40;;;8.60;99.90;;;;;;4963159;29;20050;-80
2024/02/01 11:06:32;;;;;;;15.70;1.15;;;8.70;99.90;;;;;;4963430;28;20562;-80
2024/02/01 11:09:05;;;;;;;16.17;0.95;;;;;;;;;;4964701;28;20035;-80
2024/02/01 11:11:35;;;;;;;10.30;1.13;;;8.70;99.90;;;;;;4963966;28;20142;-81
2024/02/01 11:14:12;;;;;;;19.67;1.15;;;8.60;99.90;;;;;;4964391;28;20035;-80
2024/02/01 11:16:40;;;;;;;16.27;1.00;;;8.80;99.90;;;;;;4964360;28;20110;-80
2024/02/01 11:19:14;;;;;;;26.63;2.03;;;8.90;99.90;;;;;;4965006;28;20054;-80
2024/02/01 11:21:55;;;;;;;16.17;1.67;;;8.90;99.90;;;;;;4964359;28;20027;-80
2024/02/01 11:24:29;;;;;;;19.02;2.13;;;8.80;99.90;;;;;;4962963;28;20035;-80
2024/02/01 11:27:03;;;;;;;23.25;1.27;;;8.80;99.90;;;;;;4963260;28;20020;-79
2024/02/01 11:29:34;;;;;;;15.48;2.22;;;8.70;99.90;;;;;;4961764;28;20059;-79
2024/02/01 11:32:03;;;;;;;14.73;2.33;;;10.80;99.90;;;;;;4962155;28;20023;-79
2024/02/01 11:34:30;;;;;;;;;;;8.60;99.90;;;;;;4962193;28;20019;-80
2024/02/01 11:36:56;;;;;;;5.90;0.40;;;8.60;99.90;;;;;;4963035;29;19913;-80
2024/02/01 11:39:22;;;;;;;12.13;0.85;;;8.70;99.90;;;;;;4962626;28;20395;-80
2024/02/01 11:41:52;;;;;;;22.05;1.20;;;9.60;99.90;;;;;;4961618;28;20055;-80
2024/02/01 11:44:19;;;;;;;21.80;1.75;;;8.70;99.90;;;;;;4962142;28;20114;-80
2024/02/01 11:46:46;;;;;;;11.75;0.88;;;8.70;99.90;;;;;;4962828;29;20027;-81
2024/02/01 11:49:25;;;;;;;12.98;1.17;;;8.80;99.90;;;;;;4963174;28;20034;-79
2024/02/01 11:52:13;;;;;;;;;;;8.80;99.90;;;;;;4962965;28;20019;-79
2024/02/01 11:54:47;;;;;;;7.78;0.93;;;8.90;99.90;;;;;;4962751;28;20259;-79
2024/02/01 11:57:18;;;;;;;15.18;0.75;;;8.90;99.90;;;;;;4962102;28;20027;-80
2024/02/01 11:59:44;;;;;;;27.42;2.63;;;9.00;99.90;;;;;;4961904;28;20027;-79
2024/02/01 12:02:10;;;;;;;17.30;2.75;;;9.00;99.90;;;;;;4962180;28;20047;-79
2024/02/01 12:04:37;;;;;;;22.48;1.38;;;9.10;99.90;;;;;;4963521;28;20034;-79
2024/02/01 12:07:05;;;;;;;18.05;1.85;;;9.20;99.90;;;;;;4962469;28;20023;-79
2024/02/01 12:09:35;;;;;;;14.98;1.65;;;9.20;99.90;;;;;;4963725;28;20027;-81
2024/02/01 12:12:03;;;;;;;15.30;0.52;;;9.10;99.90;;;;;;4963201;28;20114;-80
2024/02/01 12:14:28;;;;;;;12.98;1.00;;;9.10;99.90;;;;;;4963317;28;20032;-79
2024/02/01 12:16:56;;;;;;;20.17;1.75;;;9.00;99.90;;;;;;4963166;29;20047;-81
2024/02/01 12:19:23;;;;;;;13.45;0.55;;;9.00;99.90;;;;;;4963392;28;20082;-79
2024/02/01 12:21:55;;;;;;;15.15;0.52;;;9.20;99.90;;;;;;4963517;28;20035;-82
2024/02/01 12:24:26;;;;;;;11.88;1.08;;;9.20;99.90;;;;;;4963979;28;20019;-80
2024/02/01 12:26:52;;;;;;;13.98;1.13;;;9.60;99.90;;;;;;4962532;28;20035;-81
2024/02/01 12:29:18;;;;;;;13.77;0.88;;;9.80;99.90;;;;;;4962652;28;20038;-80
2024/02/01 12:31:44;;;;;;;17.48;1.23;;;10.30;99.90;;;;;;4962270;28;20019;-80
2024/02/01 12:34:15;;;;;;;17.33;1.40;;;10.40;99.90;;;;;;4962266;28;20031;-80
2024/02/01 12:36:41;;;;;;;16.80;0.63;;;10.70;99.90;;;;;;4960547;28;20054;-80
2024/02/01 12:39:08;;;;;;;13.25;0.85;;;10.80;99.90;;;;;;4962102;28;20043;-79
2024/02/01 12:41:34;;;;;;;17.05;1.70;;;10.90;99.90;;;;;;4963531;28;20023;-81
2024/02/01 12:44:04;;;;;;;27.48;2.30;;;10.90;99.90;;;;;;4961164;28;20059;-81
2024/02/01 12:46:29;;;;;;;13.57;1.10;;;11.00;99.90;;;;;;4961080;29;20051;-79
2024/02/01 12:48:56;;;;;;;13.60;0.70;;;11.10;99.90;;;;;;4961320;28;20027;-79
2024/02/01 12:51:28;;;;;;;11.85;0.40;;;11.20;99.90;;;;;;4960858;28;20074;-80
2024/02/01 12:54:00;;;;;;;11.10;0.63;;;11.30;99.90;;;;;;4960046;28;20023;-80
2024/02/01 12:56:27;;;;;;;17.92;1.90;;;11.30;99.90;;;;;;4960266;28;20027;-80
2024/02/01 12:58:53;;;;;;;16.65;1.70;;;11.30;99.90;;;;;;4962248;28;20086;-80
2024/02/01 13:01:22;;;;;;;21.38;2.10;;;11.40;99.90;;;;;;4961437;28;20502;-80
2024/02/01 13:03:49;;;;;;;;;;;11.40;99.90;;;;;;4961640;28;20030;-80
2024/02/01 13:06:18;;;;;;;9.15;0.90;;;11.40;99.90;;;;;;4961654;28;19907;-81
2024/02/01 13:08:52;;;;;;;19.63;1.73;;;11.40;99.90;;;;;;4962174;28;20035;-81
2024/02/01 13:11:29;;;;;;;18.52;0.80;;;11.30;99.90;;;;;;4962425;28;20019;-80
2024/02/01 13:13:58;;;;;;;18.13;2.17;;;11.30;99.90;;;;;;4961136;28;20512;-80
2024/02/01 13:16:28;;;;;;;11.90;0.73;;;11.10;99.90;;;;;;4961477;28;20027;-80
2024/02/01 13:18:55;;;;;;;10.90;0.93;;;11.10;99.90;;;;;;4961860;28;20099;-80
2024/02/01 13:21:22;;;;;;;20.05;1.95;;;11.20;99.90;;;;;;4960804;28;20027;-81
2024/02/01 13:23:49;;;;;;;12.90;0.30;;;11.20;99.90;;;;;;4963887;28;20027;-81
2024/02/01 13:26:15;;;;;;;8.02;1.05;;;11.00;99.90;;;;;;4962347;28;20019;-81
2024/02/01 13:28:42;;;;;;;12.63;1.02;;;11.00;99.90;;;;;;4961966;28;20394;-81
2024/02/01 13:31:09;;;;;;;11.15;0.85;;;;;;;;;;4962725;28;20344;-81
2024/02/01 13:33:35;;;;;;;14.25;1.17;;;11.10;99.90;;;;;;4962322;28;20019;-79
2024/02/01 13:36:09;;;;;;;8.25;0.73;;;11.10;99.90;;;;;;4962214;28;20063;-81
2024/02/01 13:38:36;;;;;;;17.35;2.42;;;11.00;99.90;;;;;;4963265;28;20031;-81
2024/02/01 13:41:02;;;;;;;11.23;0.93;;;10.90;99.90;;;;;;4961868;28;20106;-81
2024/02/01 13:43:28;;;;;;;18.13;1.65;;;10.80;99.90;;;;;;4962726;28;20023;-81
2024/02/01 13:45:54;;;;;;;17.17;1.00;;;10.50;99.90;;;;;;4964412;28;20035;-81
2024/02/01 13:48:21;;;;;;;11.60;0.65;;;10.50;99.90;;;;;;4962771;28;20452;-82
2024/02/01 13:50:47;;;;;;;19.17;1.60;;;10.40;99.90;;;;;;4963480;28;20023;-81
2024/02/01 13:53:17;;;;;;;12.05;1.10;;;10.20;99.90;;;;;;4964694;28;20031;-81
2024/02/01 13:55:43;;;;;;;16.33;2.05;;;10.20;99.90;;;;;;4964305;28;20027;-81
2024/02/01 13:58:09;;;;;;;14.70;0.90;;;10.10;99.90;;;;;;4963740;28;20023;-81
2024/02/01 14:00:34;;;;;;;14.68;1.40;;;10.10;99.90;;;;;;4963110;28;20055;-81
2024/02/01 14:03:00;;;;;;;13.68;1.50;;;10.00;99.90;;;;;;4964338;28;20031;-81
2024/02/01 14:05:26;;;;;;;14.13;0.90;;;10.50;99.90;;;;;;4964092;28;20031;-82